Watsonville, CA (95076)

10:22 AM PDT on July 25, 2016 (GMT -0700)
Crestview | | Change Station

Elev 79 ft 36.93 °N, 121.76 °W | Updated 11 minutes ago

Overcast
Overcast
61.2 °F
Feels Like 61.2 °F
N
0.0
Wind Variable Wind from SSE

Today
High -- | Low -- °F
--% Chance of Precip.
Yesterday
High -- | Low -- °F
Precip. -- in
Pressure 30.00 in
Visibility 10.0 miles
Clouds Overcast 600 ft
Dew Point 53 °F
Humidity 75%
Rainfall 0.00 in
Snow Depth Not available.
6:07 AM 8:19 PM
Waning Gibbous, 64% visible
METAR KWVI 251653Z AUTO 10006KT 10SM OVC006 13/11 A3000 RMK AO2 SLP157 T01330111
Pressure 30.00 in
Visibility 10.0 miles
Clouds Overcast 600 ft
Dew Point 53 °F
Humidity 75%
Rainfall 0.00 in
Snow Depth Not available.
6:07 AM 8:19 PM
Waning Gibbous, 64% visible
METAR KWVI 251653Z AUTO 10006KT 10SM OVC006 13/11 A3000 RMK AO2 SLP157 T01330111

10-Day Weather Forecast

Almanac

Astronomy

Jul. 25, 2016 Rise Set
Actual Time
Civil Twilight
Nautical Twilight
Astronomical Twilight
Moon
Length of Visible Light
Length of Day
Tomorrow will be .
, % of the Moon is Illuminated

Today's Extremes

State Highs State Lows

Community

WunderPhotos

Upload Photos

1,927,363 photos uploaded!

WunderBlog® & News

Nearby

Air Quality

  Air Quality AQ Index Pollutant
Not available.

Snow Depth

Station Depth Elevation

Earthquake Activity

City Distance Mag. Time & Date
Minimum magnitude displayed is 2.5.

Coastal Water Temperatures

Place Temperature

Stations

Nearby Weather Stations

Station Location Temp. Windchill Dew Point Humidity Wind Precip. Elev Updated Type
                   

Watches & Warnings

There are currently no watches in effect.